sensor_id;sensor_type;location;lat;lon;timestamp;P1;durP1;ratioP1;P2;durP2;ratioP2
66946;SDS011;53853;51.982;5.928;2022-12-05T00:00:24;42.53;;;28.10;;
66946;SDS011;53853;51.982;5.928;2022-12-05T00:02:57;33.40;;;23.20;;
66946;SDS011;53853;51.982;5.928;2022-12-05T00:05:31;41.58;;;27.73;;
66946;SDS011;53853;51.982;5.928;2022-12-05T00:08:00;44.95;;;27.67;;
66946;SDS011;53853;51.982;5.928;2022-12-05T00:10:30;39.97;;;27.63;;
66946;SDS011;53853;51.982;5.928;2022-12-05T00:13:03;36.53;;;25.15;;
66946;SDS011;53853;51.982;5.928;2022-12-05T00:15:35;50.40;;;31.83;;
66946;SDS011;53853;51.982;5.928;2022-12-05T00:18:08;39.05;;;27.13;;
66946;SDS011;53853;51.982;5.928;2022-12-05T00:20:43;39.28;;;25.90;;
66946;SDS011;53853;51.982;5.928;2022-12-05T00:23:13;38.42;;;26.63;;
66946;SDS011;53853;51.982;5.928;2022-12-05T00:25:43;41.58;;;28.02;;
66946;SDS011;53853;51.982;5.928;2022-12-05T00:28:13;37.42;;;25.80;;
66946;SDS011;53853;51.982;5.928;2022-12-05T00:30:43;40.72;;;28.15;;
66946;SDS011;53853;51.982;5.928;2022-12-05T00:33:15;43.10;;;27.30;;
66946;SDS011;53853;51.982;5.928;2022-12-05T00:35:45;40.22;;;27.23;;
66946;SDS011;53853;51.982;5.928;2022-12-05T00:38:15;43.20;;;27.25;;
66946;SDS011;53853;51.982;5.928;2022-12-05T00:40:45;41.97;;;27.92;;
66946;SDS011;53853;51.982;5.928;2022-12-05T00:43:15;42.72;;;28.58;;
66946;SDS011;53853;51.982;5.928;2022-12-05T00:45:44;44.63;;;29.75;;
66946;SDS011;53853;51.982;5.928;2022-12-05T00:48:17;47.92;;;31.10;;
66946;SDS011;53853;51.982;5.928;2022-12-05T00:50:47;43.13;;;27.67;;
66946;SDS011;53853;51.982;5.928;2022-12-05T00:53:17;42.58;;;28.52;;
66946;SDS011;53853;51.982;5.928;2022-12-05T00:55:47;43.33;;;28.45;;
66946;SDS011;53853;51.982;5.928;2022-12-05T00:58:16;41.03;;;25.38;;
66946;SDS011;53853;51.982;5.928;2022-12-05T01:00:46;42.65;;;29.55;;
66946;SDS011;53853;51.982;5.928;2022-12-05T01:03:19;40.88;;;26.65;;
66946;SDS011;53853;51.982;5.928;2022-12-05T01:05:49;40.85;;;27.45;;
66946;SDS011;53853;51.982;5.928;2022-12-05T01:08:18;39.97;;;25.95;;
66946;SDS011;53853;51.982;5.928;2022-12-05T01:10:51;43.40;;;26.50;;
66946;SDS011;53853;51.982;5.928;2022-12-05T01:13:22;36.50;;;25.25;;
66946;SDS011;53853;51.982;5.928;2022-12-05T01:15:53;42.65;;;26.55;;
66946;SDS011;53853;51.982;5.928;2022-12-05T01:18:26;39.25;;;27.02;;
66946;SDS011;53853;51.982;5.928;2022-12-05T01:20:57;41.13;;;27.63;;
66946;SDS011;53853;51.982;5.928;2022-12-05T01:23:27;44.05;;;30.05;;
66946;SDS011;53853;51.982;5.928;2022-12-05T01:25:56;44.95;;;28.77;;
66946;SDS011;53853;51.982;5.928;2022-12-05T01:28:26;38.60;;;25.67;;
66946;SDS011;53853;51.982;5.928;2022-12-05T01:30:56;37.08;;;25.73;;
66946;SDS011;53853;51.982;5.928;2022-12-05T01:33:29;35.75;;;24.85;;
66946;SDS011;53853;51.982;5.928;2022-12-05T01:35:59;37.88;;;26.15;;
66946;SDS011;53853;51.982;5.928;2022-12-05T01:38:29;38.65;;;25.38;;
66946;SDS011;53853;51.982;5.928;2022-12-05T01:40:59;40.97;;;28.33;;
66946;SDS011;53853;51.982;5.928;2022-12-05T01:43:30;36.80;;;24.77;;
66946;SDS011;53853;51.982;5.928;2022-12-05T01:46:00;43.72;;;28.17;;
66946;SDS011;53853;51.982;5.928;2022-12-05T01:48:33;39.60;;;27.45;;
66946;SDS011;53853;51.982;5.928;2022-12-05T01:53:34;36.63;;;23.60;;
66946;SDS011;53853;51.982;5.928;2022-12-05T01:56:05;37.15;;;24.40;;
66946;SDS011;53853;51.982;5.928;2022-12-05T01:58:36;38.70;;;24.85;;
66946;SDS011;53853;51.982;5.928;2022-12-05T02:01:08;39.13;;;25.05;;
66946;SDS011;53853;51.982;5.928;2022-12-05T02:03:42;34.70;;;22.95;;
66946;SDS011;53853;51.982;5.928;2022-12-05T02:06:16;38.92;;;25.20;;
66946;SDS011;53853;51.982;5.928;2022-12-05T02:08:46;34.13;;;22.75;;
66946;SDS011;53853;51.982;5.928;2022-12-05T02:11:16;39.47;;;26.98;;
66946;SDS011;53853;51.982;5.928;2022-12-05T02:16:45;42.00;;;26.15;;
66946;SDS011;53853;51.982;5.928;2022-12-05T02:19:46;36.55;;;24.20;;
66946;SDS011;53853;51.982;5.928;2022-12-05T02:22:49;35.55;;;24.27;;
66946;SDS011;53853;51.982;5.928;2022-12-05T02:25:35;35.15;;;23.17;;
66946;SDS011;53853;51.982;5.928;2022-12-05T02:31:15;34.70;;;23.83;;
66946;SDS011;53853;51.982;5.928;2022-12-05T02:33:51;35.95;;;24.08;;
66946;SDS011;53853;51.982;5.928;2022-12-05T02:36:29;33.40;;;22.83;;
66946;SDS011;53853;51.982;5.928;2022-12-05T02:39:06;33.88;;;21.95;;
66946;SDS011;53853;51.982;5.928;2022-12-05T02:41:46;34.22;;;23.08;;
66946;SDS011;53853;51.982;5.928;2022-12-05T02:44:20;31.60;;;21.50;;
66946;SDS011;53853;51.982;5.928;2022-12-05T02:47:00;33.33;;;23.70;;
66946;SDS011;53853;51.982;5.928;2022-12-05T02:49:34;37.60;;;24.35;;
66946;SDS011;53853;51.982;5.928;2022-12-05T02:52:10;38.05;;;23.42;;
66946;SDS011;53853;51.982;5.928;2022-12-05T02:54:43;34.22;;;23.85;;
66946;SDS011;53853;51.982;5.928;2022-12-05T02:57:16;32.53;;;21.90;;
66946;SDS011;53853;51.982;5.928;2022-12-05T02:59:49;33.38;;;22.90;;
66946;SDS011;53853;51.982;5.928;2022-12-05T03:02:24;34.45;;;23.70;;
66946;SDS011;53853;51.982;5.928;2022-12-05T03:04:57;33.08;;;23.63;;
66946;SDS011;53853;51.982;5.928;2022-12-05T03:07:42;36.17;;;24.50;;
66946;SDS011;53853;51.982;5.928;2022-12-05T03:10:15;27.65;;;19.35;;
66946;SDS011;53853;51.982;5.928;2022-12-05T03:12:49;39.35;;;25.20;;
66946;SDS011;53853;51.982;5.928;2022-12-05T03:15:23;30.27;;;21.58;;
66946;SDS011;53853;51.982;5.928;2022-12-05T03:17:59;36.58;;;25.67;;
66946;SDS011;53853;51.982;5.928;2022-12-05T03:20:35;32.22;;;22.08;;
66946;SDS011;53853;51.982;5.928;2022-12-05T03:23:11;30.60;;;21.33;;
66946;SDS011;53853;51.982;5.928;2022-12-05T03:25:48;27.20;;;19.42;;
66946;SDS011;53853;51.982;5.928;2022-12-05T03:28:27;36.03;;;24.20;;
66946;SDS011;53853;51.982;5.928;2022-12-05T03:31:03;29.52;;;20.02;;
66946;SDS011;53853;51.982;5.928;2022-12-05T03:33:41;29.73;;;19.73;;
66946;SDS011;53853;51.982;5.928;2022-12-05T03:36:18;29.67;;;19.60;;
66946;SDS011;53853;51.982;5.928;2022-12-05T03:38:51;30.90;;;21.10;;
66946;SDS011;53853;51.982;5.928;2022-12-05T03:46:36;31.45;;;20.92;;
66946;SDS011;53853;51.982;5.928;2022-12-05T03:49:11;25.70;;;18.77;;
66946;SDS011;53853;51.982;5.928;2022-12-05T03:51:48;29.30;;;20.00;;
66946;SDS011;53853;51.982;5.928;2022-12-05T03:54:24;29.58;;;20.55;;
66946;SDS011;53853;51.982;5.928;2022-12-05T03:57:01;25.73;;;19.85;;
66946;SDS011;53853;51.982;5.928;2022-12-05T03:59:36;27.75;;;18.67;;
66946;SDS011;53853;51.982;5.928;2022-12-05T04:02:12;29.58;;;21.65;;
66946;SDS011;53853;51.982;5.928;2022-12-05T04:04:59;27.50;;;19.55;;
66946;SDS011;53853;51.982;5.928;2022-12-05T04:07:34;28.35;;;18.52;;
66946;SDS011;53853;51.982;5.928;2022-12-05T04:10:10;31.88;;;20.50;;
66946;SDS011;53853;51.982;5.928;2022-12-05T04:12:43;27.27;;;18.95;;
66946;SDS011;53853;51.982;5.928;2022-12-05T04:15:16;31.83;;;20.60;;
66946;SDS011;53853;51.982;5.928;2022-12-05T04:17:51;22.90;;;16.65;;
66946;SDS011;53853;51.982;5.928;2022-12-05T04:20:26;24.83;;;17.60;;
66946;SDS011;53853;51.982;5.928;2022-12-05T04:23:12;32.17;;;21.73;;
66946;SDS011;53853;51.982;5.928;2022-12-05T04:25:46;25.20;;;19.17;;
66946;SDS011;53853;51.982;5.928;2022-12-05T04:28:26;27.80;;;19.90;;
66946;SDS011;53853;51.982;5.928;2022-12-05T04:31:01;32.30;;;22.98;;
66946;SDS011;53853;51.982;5.928;2022-12-05T04:33:35;29.88;;;20.75;;
66946;SDS011;53853;51.982;5.928;2022-12-05T04:36:14;26.15;;;19.55;;
66946;SDS011;53853;51.982;5.928;2022-12-05T04:38:47;24.40;;;18.13;;
66946;SDS011;53853;51.982;5.928;2022-12-05T04:41:21;33.47;;;22.65;;
66946;SDS011;53853;51.982;5.928;2022-12-05T04:43:54;25.63;;;18.52;;
66946;SDS011;53853;51.982;5.928;2022-12-05T04:46:31;26.88;;;18.75;;
66946;SDS011;53853;51.982;5.928;2022-12-05T04:49:04;26.73;;;18.13;;
66946;SDS011;53853;51.982;5.928;2022-12-05T04:51:40;29.70;;;20.88;;
66946;SDS011;53853;51.982;5.928;2022-12-05T04:54:12;29.25;;;20.50;;
66946;SDS011;53853;51.982;5.928;2022-12-05T04:56:47;28.33;;;19.10;;
66946;SDS011;53853;51.982;5.928;2022-12-05T04:59:19;28.98;;;20.85;;
66946;SDS011;53853;51.982;5.928;2022-12-05T05:01:49;24.85;;;17.75;;
66946;SDS011;53853;51.982;5.928;2022-12-05T05:04:25;29.40;;;21.00;;
66946;SDS011;53853;51.982;5.928;2022-12-05T05:07:01;25.88;;;19.00;;
66946;SDS011;53853;51.982;5.928;2022-12-05T05:09:34;31.02;;;21.08;;
66946;SDS011;53853;51.982;5.928;2022-12-05T05:12:04;24.83;;;17.83;;
66946;SDS011;53853;51.982;5.928;2022-12-05T05:14:35;23.48;;;17.83;;
66946;SDS011;53853;51.982;5.928;2022-12-05T05:17:04;30.45;;;21.45;;
66946;SDS011;53853;51.982;5.928;2022-12-05T05:19:34;27.77;;;19.13;;
66946;SDS011;53853;51.982;5.928;2022-12-05T05:22:07;26.48;;;19.25;;
66946;SDS011;53853;51.982;5.928;2022-12-05T05:24:37;27.35;;;17.88;;
66946;SDS011;53853;51.982;5.928;2022-12-05T05:27:06;23.58;;;16.55;;
66946;SDS011;53853;51.982;5.928;2022-12-05T05:29:36;26.70;;;18.48;;
66946;SDS011;53853;51.982;5.928;2022-12-05T05:32:06;24.70;;;18.17;;
66946;SDS011;53853;51.982;5.928;2022-12-05T05:34:36;24.90;;;19.25;;
66946;SDS011;53853;51.982;5.928;2022-12-05T05:37:09;26.58;;;19.77;;
66946;SDS011;53853;51.982;5.928;2022-12-05T05:39:39;22.73;;;17.55;;
66946;SDS011;53853;51.982;5.928;2022-12-05T05:42:09;22.52;;;17.58;;
66946;SDS011;53853;51.982;5.928;2022-12-05T05:44:38;22.23;;;16.67;;
66946;SDS011;53853;51.982;5.928;2022-12-05T05:47:08;28.02;;;18.83;;
66946;SDS011;53853;51.982;5.928;2022-12-05T05:49:38;23.75;;;17.88;;
66946;SDS011;53853;51.982;5.928;2022-12-05T05:52:11;21.67;;;16.38;;
66946;SDS011;53853;51.982;5.928;2022-12-05T05:54:40;24.13;;;17.58;;
66946;SDS011;53853;51.982;5.928;2022-12-05T05:57:10;20.17;;;15.90;;
66946;SDS011;53853;51.982;5.928;2022-12-05T05:59:40;21.98;;;16.65;;
66946;SDS011;53853;51.982;5.928;2022-12-05T06:02:10;26.13;;;20.58;;
66946;SDS011;53853;51.982;5.928;2022-12-05T06:04:40;27.02;;;19.17;;
66946;SDS011;53853;51.982;5.928;2022-12-05T06:07:12;25.08;;;18.67;;
66946;SDS011;53853;51.982;5.928;2022-12-05T06:09:42;21.52;;;15.68;;
66946;SDS011;53853;51.982;5.928;2022-12-05T06:12:12;18.88;;;14.52;;
66946;SDS011;53853;51.982;5.928;2022-12-05T06:14:42;19.33;;;14.50;;
66946;SDS011;53853;51.982;5.928;2022-12-05T06:17:12;22.23;;;15.90;;
66946;SDS011;53853;51.982;5.928;2022-12-05T06:19:41;20.42;;;15.07;;
66946;SDS011;53853;51.982;5.928;2022-12-05T06:22:14;23.80;;;17.90;;
66946;SDS011;53853;51.982;5.928;2022-12-05T06:24:44;23.38;;;17.42;;
66946;SDS011;53853;51.982;5.928;2022-12-05T06:27:14;21.40;;;14.88;;
66946;SDS011;53853;51.982;5.928;2022-12-05T06:29:44;20.00;;;14.30;;
66946;SDS011;53853;51.982;5.928;2022-12-05T06:32:13;24.73;;;18.73;;
66946;SDS011;53853;51.982;5.928;2022-12-05T06:34:43;21.90;;;16.33;;
66946;SDS011;53853;51.982;5.928;2022-12-05T06:37:16;22.98;;;17.20;;
66946;SDS011;53853;51.982;5.928;2022-12-05T06:39:46;24.10;;;17.85;;
66946;SDS011;53853;51.982;5.928;2022-12-05T06:42:17;26.05;;;19.60;;
66946;SDS011;53853;51.982;5.928;2022-12-05T06:44:47;28.15;;;19.38;;
66946;SDS011;53853;51.982;5.928;2022-12-05T06:47:17;22.88;;;18.10;;
66946;SDS011;53853;51.982;5.928;2022-12-05T06:49:46;20.23;;;16.90;;
66946;SDS011;53853;51.982;5.928;2022-12-05T06:52:19;21.02;;;16.15;;
66946;SDS011;53853;51.982;5.928;2022-12-05T06:54:49;20.45;;;16.45;;
66946;SDS011;53853;51.982;5.928;2022-12-05T06:57:19;20.92;;;16.13;;
66946;SDS011;53853;51.982;5.928;2022-12-05T06:59:49;26.08;;;20.00;;
66946;SDS011;53853;51.982;5.928;2022-12-05T07:02:38;22.90;;;16.65;;
66946;SDS011;53853;51.982;5.928;2022-12-05T07:05:06;20.77;;;16.25;;
66946;SDS011;53853;51.982;5.928;2022-12-05T07:07:39;20.90;;;16.00;;
66946;SDS011;53853;51.982;5.928;2022-12-05T07:10:09;20.13;;;14.70;;
66946;SDS011;53853;51.982;5.928;2022-12-05T07:12:39;21.38;;;16.40;;
66946;SDS011;53853;51.982;5.928;2022-12-05T07:15:09;23.17;;;17.15;;
66946;SDS011;53853;51.982;5.928;2022-12-05T07:17:39;18.30;;;14.95;;
66946;SDS011;53853;51.982;5.928;2022-12-05T07:20:09;24.40;;;17.67;;
66946;SDS011;53853;51.982;5.928;2022-12-05T07:22:45;16.58;;;13.18;;
66946;SDS011;53853;51.982;5.928;2022-12-05T07:25:15;19.80;;;16.52;;
66946;SDS011;53853;51.982;5.928;2022-12-05T07:27:47;24.05;;;18.52;;
66946;SDS011;53853;51.982;5.928;2022-12-05T07:30:17;18.45;;;14.43;;
66946;SDS011;53853;51.982;5.928;2022-12-05T07:32:47;20.20;;;15.82;;
66946;SDS011;53853;51.982;5.928;2022-12-05T07:35:17;18.10;;;14.20;;
66946;SDS011;53853;51.982;5.928;2022-12-05T07:37:49;18.92;;;13.98;;
66946;SDS011;53853;51.982;5.928;2022-12-05T07:40:19;18.80;;;15.32;;
66946;SDS011;53853;51.982;5.928;2022-12-05T07:42:49;17.42;;;13.25;;
66946;SDS011;53853;51.982;5.928;2022-12-05T07:45:20;18.13;;;14.50;;
66946;SDS011;53853;51.982;5.928;2022-12-05T07:47:50;17.20;;;13.68;;
66946;SDS011;53853;51.982;5.928;2022-12-05T07:50:20;16.95;;;13.30;;
66946;SDS011;53853;51.982;5.928;2022-12-05T07:52:53;24.85;;;19.13;;
66946;SDS011;53853;51.982;5.928;2022-12-05T07:55:23;20.08;;;16.27;;
66946;SDS011;53853;51.982;5.928;2022-12-05T07:57:53;16.95;;;13.43;;
66946;SDS011;53853;51.982;5.928;2022-12-05T08:00:23;18.63;;;15.05;;
66946;SDS011;53853;51.982;5.928;2022-12-05T08:02:53;19.70;;;14.77;;
66946;SDS011;53853;51.982;5.928;2022-12-05T08:05:23;20.10;;;15.93;;
66946;SDS011;53853;51.982;5.928;2022-12-05T08:07:55;18.60;;;14.25;;
66946;SDS011;53853;51.982;5.928;2022-12-05T08:10:25;18.05;;;14.15;;
66946;SDS011;53853;51.982;5.928;2022-12-05T08:12:55;17.83;;;13.68;;
66946;SDS011;53853;51.982;5.928;2022-12-05T08:15:25;17.15;;;13.73;;
66946;SDS011;53853;51.982;5.928;2022-12-05T08:17:54;16.05;;;13.90;;
66946;SDS011;53853;51.982;5.928;2022-12-05T08:20:24;20.27;;;14.68;;
66946;SDS011;53853;51.982;5.928;2022-12-05T08:22:57;15.27;;;11.63;;
66946;SDS011;53853;51.982;5.928;2022-12-05T08:25:27;18.08;;;13.57;;
66946;SDS011;53853;51.982;5.928;2022-12-05T08:27:57;18.35;;;14.27;;
66946;SDS011;53853;51.982;5.928;2022-12-05T08:30:27;18.85;;;15.10;;
66946;SDS011;53853;51.982;5.928;2022-12-05T08:32:57;19.30;;;14.52;;
66946;SDS011;53853;51.982;5.928;2022-12-05T08:35:27;18.80;;;14.05;;
66946;SDS011;53853;51.982;5.928;2022-12-05T08:37:59;19.65;;;14.57;;
66946;SDS011;53853;51.982;5.928;2022-12-05T08:40:29;18.42;;;14.05;;
66946;SDS011;53853;51.982;5.928;2022-12-05T08:42:59;20.58;;;16.40;;
66946;SDS011;53853;51.982;5.928;2022-12-05T08:45:28;19.08;;;14.02;;
66946;SDS011;53853;51.982;5.928;2022-12-05T08:47:58;18.83;;;13.90;;
66946;SDS011;53853;51.982;5.928;2022-12-05T08:50:28;18.77;;;15.18;;
66946;SDS011;53853;51.982;5.928;2022-12-05T08:53:01;20.23;;;15.52;;
66946;SDS011;53853;51.982;5.928;2022-12-05T08:55:32;18.92;;;14.55;;
66946;SDS011;53853;51.982;5.928;2022-12-05T08:58:02;21.55;;;16.13;;
66946;SDS011;53853;51.982;5.928;2022-12-05T09:00:32;22.48;;;16.80;;
66946;SDS011;53853;51.982;5.928;2022-12-05T09:03:02;24.70;;;17.98;;
66946;SDS011;53853;51.982;5.928;2022-12-05T09:05:32;23.63;;;17.13;;
66946;SDS011;53853;51.982;5.928;2022-12-05T09:08:05;21.65;;;15.93;;
66946;SDS011;53853;51.982;5.928;2022-12-05T09:10:36;19.48;;;15.48;;
66946;SDS011;53853;51.982;5.928;2022-12-05T09:13:06;22.35;;;14.52;;
66946;SDS011;53853;51.982;5.928;2022-12-05T09:15:36;22.25;;;16.23;;
66946;SDS011;53853;51.982;5.928;2022-12-05T09:18:06;20.40;;;15.63;;
66946;SDS011;53853;51.982;5.928;2022-12-05T09:20:38;20.10;;;15.30;;
66946;SDS011;53853;51.982;5.928;2022-12-05T09:23:10;19.60;;;14.85;;
66946;SDS011;53853;51.982;5.928;2022-12-05T09:25:40;21.67;;;16.52;;
66946;SDS011;53853;51.982;5.928;2022-12-05T09:28:10;26.58;;;18.90;;
66946;SDS011;53853;51.982;5.928;2022-12-05T09:30:39;23.42;;;17.42;;
66946;SDS011;53853;51.982;5.928;2022-12-05T09:33:09;20.60;;;14.98;;
66946;SDS011;53853;51.982;5.928;2022-12-05T09:35:39;23.58;;;17.92;;
66946;SDS011;53853;51.982;5.928;2022-12-05T09:38:12;24.65;;;18.20;;
66946;SDS011;53853;51.982;5.928;2022-12-05T09:40:41;23.10;;;16.75;;
66946;SDS011;53853;51.982;5.928;2022-12-05T09:43:14;21.55;;;15.57;;
66946;SDS011;53853;51.982;5.928;2022-12-05T09:45:54;24.63;;;16.95;;
66946;SDS011;53853;51.982;5.928;2022-12-05T09:48:29;21.90;;;17.00;;
66946;SDS011;53853;51.982;5.928;2022-12-05T09:51:00;21.75;;;15.80;;
66946;SDS011;53853;51.982;5.928;2022-12-05T09:53:34;28.40;;;19.48;;
66946;SDS011;53853;51.982;5.928;2022-12-05T09:56:11;24.77;;;17.70;;
66946;SDS011;53853;51.982;5.928;2022-12-05T09:58:49;24.58;;;17.42;;
66946;SDS011;53853;51.982;5.928;2022-12-05T10:01:25;22.25;;;15.75;;
66946;SDS011;53853;51.982;5.928;2022-12-05T10:04:03;25.15;;;18.10;;
66946;SDS011;53853;51.982;5.928;2022-12-05T10:06:46;24.63;;;18.05;;
66946;SDS011;53853;51.982;5.928;2022-12-05T10:09:29;25.23;;;17.08;;
66946;SDS011;53853;51.982;5.928;2022-12-05T10:12:15;26.13;;;17.63;;
66946;SDS011;53853;51.982;5.928;2022-12-05T10:14:56;22.98;;;17.42;;
66946;SDS011;53853;51.982;5.928;2022-12-05T10:17:32;24.70;;;16.80;;
66946;SDS011;53853;51.982;5.928;2022-12-05T10:20:09;22.38;;;15.90;;
66946;SDS011;53853;51.982;5.928;2022-12-05T10:22:43;23.08;;;15.50;;
66946;SDS011;53853;51.982;5.928;2022-12-05T10:25:19;23.58;;;16.05;;
66946;SDS011;53853;51.982;5.928;2022-12-05T10:30:21;23.08;;;15.70;;
66946;SDS011;53853;51.982;5.928;2022-12-05T10:32:52;22.23;;;15.65;;
66946;SDS011;53853;51.982;5.928;2022-12-05T10:35:25;24.00;;;17.52;;
66946;SDS011;53853;51.982;5.928;2022-12-05T10:38:01;23.38;;;16.20;;
66946;SDS011;53853;51.982;5.928;2022-12-05T10:40:36;19.95;;;14.77;;
66946;SDS011;53853;51.982;5.928;2022-12-05T10:43:09;23.17;;;16.48;;
66946;SDS011;53853;51.982;5.928;2022-12-05T10:45:42;24.67;;;16.50;;
66946;SDS011;53853;51.982;5.928;2022-12-05T10:48:15;24.35;;;16.55;;
66946;SDS011;53853;51.982;5.928;2022-12-05T10:50:47;22.38;;;16.67;;
66946;SDS011;53853;51.982;5.928;2022-12-05T10:53:31;25.50;;;18.08;;
66946;SDS011;53853;51.982;5.928;2022-12-05T10:59:07;21.73;;;15.93;;
66946;SDS011;53853;51.982;5.928;2022-12-05T11:01:42;23.98;;;16.55;;
66946;SDS011;53853;51.982;5.928;2022-12-05T11:04:22;20.00;;;14.63;;
66946;SDS011;53853;51.982;5.928;2022-12-05T11:06:55;24.65;;;16.13;;
66946;SDS011;53853;51.982;5.928;2022-12-05T11:09:27;20.65;;;14.23;;
66946;SDS011;53853;51.982;5.928;2022-12-05T11:12:12;18.63;;;14.68;;
66946;SDS011;53853;51.982;5.928;2022-12-05T11:14:52;21.02;;;14.88;;
66946;SDS011;53853;51.982;5.928;2022-12-05T11:17:24;22.70;;;15.35;;
66946;SDS011;53853;51.982;5.928;2022-12-05T11:19:57;18.63;;;13.52;;
66946;SDS011;53853;51.982;5.928;2022-12-05T11:22:31;19.65;;;15.10;;
66946;SDS011;53853;51.982;5.928;2022-12-05T11:27:55;20.50;;;14.60;;
66946;SDS011;53853;51.982;5.928;2022-12-05T11:30:27;24.35;;;17.48;;
66946;SDS011;53853;51.982;5.928;2022-12-05T11:33:09;21.00;;;16.02;;
66946;SDS011;53853;51.982;5.928;2022-12-05T11:35:46;18.42;;;13.70;;
66946;SDS011;53853;51.982;5.928;2022-12-05T11:38:17;19.38;;;14.68;;
66946;SDS011;53853;51.982;5.928;2022-12-05T11:40:52;18.75;;;14.60;;
66946;SDS011;53853;51.982;5.928;2022-12-05T11:43:43;19.83;;;14.30;;
66946;SDS011;53853;51.982;5.928;2022-12-05T11:46:25;19.88;;;14.70;;
66946;SDS011;53853;51.982;5.928;2022-12-05T11:49:07;17.02;;;13.27;;
66946;SDS011;53853;51.982;5.928;2022-12-05T11:51:50;18.65;;;15.05;;
66946;SDS011;53853;51.982;5.928;2022-12-05T11:54:32;16.20;;;13.18;;
66946;SDS011;53853;51.982;5.928;2022-12-05T11:57:33;14.02;;;11.82;;
66946;SDS011;53853;51.982;5.928;2022-12-05T12:00:20;14.63;;;11.88;;
66946;SDS011;53853;51.982;5.928;2022-12-05T12:03:01;13.68;;;11.75;;
66946;SDS011;53853;51.982;5.928;2022-12-05T12:05:50;15.85;;;13.35;;
66946;SDS011;53853;51.982;5.928;2022-12-05T12:08:28;15.63;;;12.63;;
66946;SDS011;53853;51.982;5.928;2022-12-05T12:11:03;12.90;;;11.23;;
66946;SDS011;53853;51.982;5.928;2022-12-05T12:13:44;12.30;;;10.23;;
66946;SDS011;53853;51.982;5.928;2022-12-05T12:16:31;13.98;;;11.95;;
66946;SDS011;53853;51.982;5.928;2022-12-05T12:19:10;11.93;;;10.55;;
66946;SDS011;53853;51.982;5.928;2022-12-05T12:21:57;11.82;;;10.00;;
66946;SDS011;53853;51.982;5.928;2022-12-05T12:24:45;12.68;;;10.02;;
66946;SDS011;53853;51.982;5.928;2022-12-05T12:27:28;12.23;;;9.98;;
66946;SDS011;53853;51.982;5.928;2022-12-05T12:30:11;10.85;;;9.13;;
66946;SDS011;53853;51.982;5.928;2022-12-05T12:32:53;11.13;;;9.98;;
66946;SDS011;53853;51.982;5.928;2022-12-05T12:35:31;10.88;;;9.13;;
66946;SDS011;53853;51.982;5.928;2022-12-05T12:38:25;10.73;;;9.02;;
66946;SDS011;53853;51.982;5.928;2022-12-05T12:41:13;12.55;;;10.07;;
66946;SDS011;53853;51.982;5.928;2022-12-05T12:43:54;13.57;;;11.77;;
66946;SDS011;53853;51.982;5.928;2022-12-05T12:46:37;12.18;;;10.52;;
66946;SDS011;53853;51.982;5.928;2022-12-05T12:49:24;13.07;;;10.32;;
66946;SDS011;53853;51.982;5.928;2022-12-05T12:52:12;11.45;;;9.25;;
66946;SDS011;53853;51.982;5.928;2022-12-05T12:54:48;10.85;;;9.30;;
66946;SDS011;53853;51.982;5.928;2022-12-05T12:57:33;11.52;;;10.23;;
66946;SDS011;53853;51.982;5.928;2022-12-05T13:00:19;11.05;;;8.93;;
66946;SDS011;53853;51.982;5.928;2022-12-05T13:02:56;10.38;;;8.60;;
66946;SDS011;53853;51.982;5.928;2022-12-05T13:05:33;13.60;;;10.95;;
66946;SDS011;53853;51.982;5.928;2022-12-05T13:08:09;9.70;;;8.43;;
66946;SDS011;53853;51.982;5.928;2022-12-05T13:10:44;10.70;;;8.95;;
66946;SDS011;53853;51.982;5.928;2022-12-05T13:13:17;11.05;;;9.38;;
66946;SDS011;53853;51.982;5.928;2022-12-05T13:15:50;9.85;;;8.23;;
66946;SDS011;53853;51.982;5.928;2022-12-05T13:18:23;10.48;;;8.73;;
66946;SDS011;53853;51.982;5.928;2022-12-05T13:20:58;10.60;;;9.00;;
66946;SDS011;53853;51.982;5.928;2022-12-05T13:23:32;10.48;;;7.97;;
66946;SDS011;53853;51.982;5.928;2022-12-05T13:26:09;12.20;;;8.85;;
66946;SDS011;53853;51.982;5.928;2022-12-05T13:28:46;9.32;;;8.43;;
66946;SDS011;53853;51.982;5.928;2022-12-05T13:31:19;8.25;;;7.43;;
66946;SDS011;53853;51.982;5.928;2022-12-05T13:34:03;10.45;;;8.18;;
66946;SDS011;53853;51.982;5.928;2022-12-05T13:36:39;8.98;;;7.60;;
66946;SDS011;53853;51.982;5.928;2022-12-05T13:39:22;9.02;;;7.05;;
66946;SDS011;53853;51.982;5.928;2022-12-05T13:42:04;8.73;;;7.50;;
66946;SDS011;53853;51.982;5.928;2022-12-05T13:44:49;9.35;;;7.72;;
66946;SDS011;53853;51.982;5.928;2022-12-05T13:47:24;8.10;;;6.72;;
66946;SDS011;53853;51.982;5.928;2022-12-05T13:50:00;10.63;;;7.82;;
66946;SDS011;53853;51.982;5.928;2022-12-05T13:52:41;10.02;;;8.77;;
66946;SDS011;53853;51.982;5.928;2022-12-05T13:55:19;8.80;;;7.05;;
66946;SDS011;53853;51.982;5.928;2022-12-05T13:57:54;13.45;;;10.45;;
66946;SDS011;53853;51.982;5.928;2022-12-05T14:00:29;9.93;;;7.53;;
66946;SDS011;53853;51.982;5.928;2022-12-05T14:03:05;8.70;;;7.28;;
66946;SDS011;53853;51.982;5.928;2022-12-05T14:05:48;9.40;;;7.55;;
66946;SDS011;53853;51.982;5.928;2022-12-05T14:11:27;7.75;;;6.93;;
66946;SDS011;53853;51.982;5.928;2022-12-05T14:14:00;6.43;;;5.63;;
66946;SDS011;53853;51.982;5.928;2022-12-05T14:19:20;6.57;;;5.82;;
66946;SDS011;53853;51.982;5.928;2022-12-05T14:22:07;7.03;;;4.93;;
66946;SDS011;53853;51.982;5.928;2022-12-05T14:24:52;3.88;;;2.85;;
66946;SDS011;53853;51.982;5.928;2022-12-05T14:27:36;3.30;;;2.33;;
66946;SDS011;53853;51.982;5.928;2022-12-05T14:30:17;3.30;;;2.13;;
66946;SDS011;53853;51.982;5.928;2022-12-05T14:32:51;5.05;;;2.50;;
66946;SDS011;53853;51.982;5.928;2022-12-05T14:35:24;3.35;;;2.17;;
66946;SDS011;53853;51.982;5.928;2022-12-05T14:37:57;4.13;;;2.40;;
66946;SDS011;53853;51.982;5.928;2022-12-05T14:43:06;3.03;;;1.98;;
66946;SDS011;53853;51.982;5.928;2022-12-05T14:48:27;4.15;;;2.40;;
66946;SDS011;53853;51.982;5.928;2022-12-05T14:51:00;2.90;;;2.10;;
66946;SDS011;53853;51.982;5.928;2022-12-05T14:53:50;3.03;;;1.98;;
66946;SDS011;53853;51.982;5.928;2022-12-05T14:56:20;2.47;;;1.80;;
66946;SDS011;53853;51.982;5.928;2022-12-05T14:58:56;4.45;;;2.60;;
66946;SDS011;53853;51.982;5.928;2022-12-05T15:01:33;3.85;;;2.50;;
66946;SDS011;53853;51.982;5.928;2022-12-05T15:04:13;3.03;;;2.28;;
66946;SDS011;53853;51.982;5.928;2022-12-05T15:06:47;4.40;;;3.00;;
66946;SDS011;53853;51.982;5.928;2022-12-05T15:12:15;3.78;;;2.53;;
66946;SDS011;53853;51.982;5.928;2022-12-05T15:14:52;3.20;;;2.58;;
66946;SDS011;53853;51.982;5.928;2022-12-05T15:17:30;3.20;;;2.17;;
66946;SDS011;53853;51.982;5.928;2022-12-05T15:20:09;4.30;;;2.63;;
66946;SDS011;53853;51.982;5.928;2022-12-05T15:22:43;3.72;;;2.63;;
66946;SDS011;53853;51.982;5.928;2022-12-05T15:25:23;3.42;;;2.50;;
66946;SDS011;53853;51.982;5.928;2022-12-05T15:28:00;2.50;;;1.85;;
66946;SDS011;53853;51.982;5.928;2022-12-05T15:30:35;3.53;;;2.10;;
66946;SDS011;53853;51.982;5.928;2022-12-05T15:33:09;5.07;;;2.83;;
66946;SDS011;53853;51.982;5.928;2022-12-05T15:35:40;5.70;;;2.50;;
66946;SDS011;53853;51.982;5.928;2022-12-05T15:38:17;3.53;;;2.50;;
66946;SDS011;53853;51.982;5.928;2022-12-05T15:40:52;2.90;;;1.95;;
66946;SDS011;53853;51.982;5.928;2022-12-05T15:43:26;3.55;;;2.30;;